Time;durP1;ratioP1;P1;durP2;ratioP2;P2;SDS_P1;SDS_P2;PMS_P1;PMS_P2;Temp;Humidity;BMP_temperature;BMP_pressure;BME280_temperature;BME280_humidity;BME280_pressure;Samples;Min_cycle;Max_cycle;Signal;HPM_P1;HPM_P2
2023/10/07 00:02:59;;;;;;;;;;;;;;;15.98;100.00;100590.03;5014694;28;1079;-59
2023/10/07 00:05:32;;;;;;;;;;;;;;;16.01;100.00;100591.16;5014467;28;1882;-59
2023/10/07 00:08:03;;;;;;;;;;;;;;;16.01;100.00;100583.59;5014583;28;1056;-59
2023/10/07 00:10:30;;;;;;;;;;;;;;;16.03;100.00;100588.75;5014400;28;1824;-59
2023/10/07 00:12:57;;;;;;;;;;;;;;;16.01;100.00;100588.38;5014413;28;1409;-59
2023/10/07 00:15:28;;;;;;;;;;;;;;;16.10;100.00;100586.63;4996823;28;883;-59
2023/10/07 00:18:10;;;;;;;;;;;;;;;16.23;100.00;100586.06;5014290;28;959;-59
2023/10/07 00:21:02;;;;;;;;;;;;;;;16.30;100.00;100586.75;5014201;28;967;-59
2023/10/07 00:23:33;;;;;;;;;;;;;;;16.46;100.00;100583.28;4996331;28;1221;-59
2023/10/07 00:26:07;;;;;;;;;;;;;;;16.53;100.00;100577.56;5014466;28;1910;-59
2023/10/07 00:28:35;;;;;;;;;;;;;;;16.57;100.00;100590.69;5014037;28;936;-59
2023/10/07 00:31:06;;;;;;;;;;;;;;;16.59;100.00;100585.47;5014127;28;903;-59
2023/10/07 00:34:02;;;;;;;;;;;;;;;16.54;100.00;100578.38;5014301;28;816;-59
2023/10/07 00:39:03;;;;;;;;;;;;;;;16.45;100.00;100580.91;5014156;28;866;-59
2023/10/07 00:41:37;;;;;;;;;;;;;;;16.42;100.00;100576.19;5013744;28;936;-59
2023/10/07 00:44:23;;;;;;;;;;;;;;;16.37;100.00;100574.66;5013819;28;899;-59
2023/10/07 00:47:13;;;;;;;;;;;;;;;16.36;100.00;100572.28;5013792;28;1886;-59
2023/10/07 00:50:01;;;;;;;;;;;;;;;16.32;100.00;100570.38;5012819;28;1467;-59
2023/10/07 00:52:33;;;;;;;;;;;;;;;16.31;100.00;100568.00;5012152;28;1808;-59
2023/10/07 00:55:09;;;;;;;;;;;;;;;16.41;100.00;100578.19;5013430;28;924;-59
2023/10/07 00:57:37;;;;;;;;;;;;;;;16.49;100.00;100571.28;5013546;28;992;-59
2023/10/07 01:00:55;;;;;;;;;;;;;;;16.52;100.00;100567.63;5013479;28;896;-59
2023/10/07 01:03:06;;;;;;;;;;;;;;;16.53;100.00;100563.63;5002647;28;1573;-59
2023/10/07 01:05:35;;;;;;;;;;;;;;;16.59;100.00;100569.50;5013316;28;1890;-59
2023/10/07 01:08:06;;;;;;;;;;;;;;;16.61;100.00;100566.31;5013459;28;854;-59
2023/10/07 01:10:37;;;;;;;;;;;;;;;16.60;100.00;100559.94;5013597;28;947;-59
2023/10/07 01:13:24;;;;;;;;;;;;;;;16.58;100.00;100556.78;5013321;28;1070;-59
2023/10/07 01:15:53;;;;;;;;;;;;;;;16.54;100.00;100559.63;5013171;28;908;-59
2023/10/07 01:18:20;;;;;;;;;;;;;;;16.50;100.00;100561.69;5013130;28;848;-59
2023/10/07 01:23:32;;;;;;;;;;;;;;;16.36;100.00;100558.34;5012961;28;1227;-59
2023/10/07 01:25:59;;;;;;;;;;;;;;;16.19;100.00;100558.22;5012812;28;1914;-59
2023/10/07 01:28:26;;;;;;;;;;;;;;;16.00;100.00;100558.91;4995472;28;1599;-59
2023/10/07 01:31:29;;;;;;;;;;;;;;;15.78;100.00;100562.00;5013211;28;916;-59
2023/10/07 01:33:47;;;;;;;;;;;;;;;15.53;100.00;100556.75;5008293;28;1433;-59
2023/10/07 01:36:24;;;;;;;;;;;;;;;15.36;100.00;100561.34;5013169;28;856;-59
2023/10/07 01:38:54;;;;;;;;;;;;;;;15.17;100.00;100560.00;5012825;28;950;-59
2023/10/07 01:41:22;;;;;;;;;;;;;;;15.02;100.00;100558.56;5013020;28;962;-59
2023/10/07 01:43:58;;;;;;;;;;;;;;;14.94;100.00;100554.28;4995220;28;851;-59
2023/10/07 01:46:32;;;;;;;;;;;;;;;14.84;100.00;100559.53;5012575;28;1973;-59
2023/10/07 01:49:12;;;;;;;;;;;;;;;14.72;100.00;100551.72;5012710;28;955;-59
2023/10/07 01:51:44;;;;;;;;;;;;;;;14.62;100.00;100555.41;5012731;28;903;-59
2023/10/07 01:54:14;;;;;;;;;;;;;;;14.50;100.00;100549.09;4994885;28;806;-59
2023/10/07 01:56:40;;;;;;;;;;;;;;;14.40;100.00;100552.78;5012684;28;931;-59
2023/10/07 02:01:47;;;;;;;;;;;;;;;14.24;100.00;100549.75;5012444;28;806;-59
2023/10/07 02:04:26;;;;;;;;;;;;;;;14.14;100.00;100553.38;5012410;28;943;-58
2023/10/07 02:06:56;;;;;;;;;;;;;;;14.05;100.00;100551.84;5012239;28;1890;-59
2023/10/07 02:09:27;;;;;;;;;;;;;;;14.03;100.00;100557.03;5012459;28;836;-59
2023/10/07 02:11:55;;;;;;;;;;;;;;;14.09;100.00;100549.84;5012280;28;922;-59
2023/10/07 02:14:25;;;;;;;;;;;;;;;14.14;100.00;100559.72;5012815;28;1056;-59
2023/10/07 02:16:52;;;;;;;;;;;;;;;14.08;100.00;100559.41;5012166;28;938;-59
2023/10/07 02:19:27;;;;;;;;;;;;;;;14.04;100.00;100560.63;4994803;28;829;-59
2023/10/07 02:21:59;;;;;;;;;;;;;;;13.88;100.00;100561.09;5012175;28;1212;-59
2023/10/07 02:24:29;;;;;;;;;;;;;;;13.68;100.00;100555.28;5011895;28;1522;-59
2023/10/07 02:27:04;;;;;;;;;;;;;;;13.56;100.00;100559.31;5012031;28;1906;-59
2023/10/07 02:29:32;;;;;;;;;;;;;;;13.58;100.00;100562.47;5011993;28;999;-59
2023/10/07 02:32:12;;;;;;;;;;;;;;;13.77;100.00;100555.63;5012083;28;967;-59
2023/10/07 02:34:51;;;;;;;;;;;;;;;14.02;100.00;100563.81;5011911;28;916;-59
2023/10/07 02:37:21;;;;;;;;;;;;;;;14.11;100.00;100565.34;4994440;28;1367;-59
2023/10/07 02:39:56;;;;;;;;;;;;;;;14.16;100.00;100562.13;5012065;28;821;-59
2023/10/07 02:42:28;;;;;;;;;;;;;;;14.16;100.00;100557.34;5011912;28;963;-59
2023/10/07 02:47:54;;;;;;;;;;;;;;;14.13;100.00;100552.59;5011871;28;815;-59
2023/10/07 02:50:21;;;;;;;;;;;;;;;14.13;100.00;100562.94;5011853;28;930;-59
2023/10/07 02:52:49;;;;;;;;;;;;;;;14.21;100.00;100558.88;5011771;28;904;-59
2023/10/07 02:57:45;;;;;;;;;;;;;;;14.35;100.00;100555.22;5011830;28;687;-59
2023/10/07 03:00:16;;;;;;;;;;;;;;;14.41;100.00;100557.13;5011681;28;1061;-59
2023/10/07 03:03:08;;;;;;;;;;;;;;;14.48;100.00;100554.28;5011707;28;927;-59
2023/10/07 03:05:30;;;;;;;;;;;;;;;14.52;100.00;100559.81;5010670;28;1898;-59
2023/10/07 03:08:02;;;;;;;;;;;;;;;14.57;100.00;100555.84;5011752;28;927;-59
2023/10/07 03:10:37;;;;;;;;;;;;;;;14.59;100.00;100556.22;5011581;28;959;-59
2023/10/07 03:13:05;;;;;;;;;;;;;;;14.55;100.00;100544.28;5011771;28;967;-59
2023/10/07 03:18:03;;;;;;;;;;;;;;;14.31;100.00;100549.66;5015509;28;658;-59
2023/10/07 03:20:46;;;;;;;;;;;;;;;14.17;100.00;100549.81;5015581;28;883;-59
2023/10/07 03:23:15;;;;;;;;;;;;;;;14.00;100.00;100546.75;5014970;28;1244;-59
2023/10/07 03:28:23;;;;;;;;;;;;;;;13.97;100.00;100552.31;5015651;28;1203;-59
2023/10/07 03:30:51;;;;;;;;;;;;;;;13.99;100.00;100556.25;5015449;28;955;-59
2023/10/07 03:33:23;;;;;;;;;;;;;;;14.07;100.00;100545.91;5015153;28;998;-59
2023/10/07 03:36:14;;;;;;;;;;;;;;;14.09;100.00;100555.41;5015151;28;915;-59
2023/10/07 03:38:39;;;;;;;;;;;;;;;14.12;100.00;100553.00;5014540;28;1735;-59
2023/10/07 03:41:09;;;;;;;;;;;;;;;14.11;100.00;100557.78;5015032;28;856;-59
2023/10/07 03:43:37;;;;;;;;;;;;;;;14.12;100.00;100551.00;5014908;28;926;-59
2023/10/07 03:46:04;;;;;;;;;;;;;;;14.13;100.00;100544.25;5014791;28;1953;-59
2023/10/07 03:48:33;;;;;;;;;;;;;;;14.13;100.00;100549.03;4997292;28;1687;-59
2023/10/07 03:51:05;;;;;;;;;;;;;;;14.10;100.00;100550.63;5014893;28;828;-59
2023/10/07 03:53:45;;;;;;;;;;;;;;;14.04;100.00;100544.72;5014663;28;978;-59
2023/10/07 03:56:12;;;;;;;;;;;;;;;14.00;100.00;100540.41;5014771;28;861;-59
2023/10/07 03:58:42;;;;;;;;;;;;;;;14.00;100.00;100545.97;5014773;28;859;-59
2023/10/07 04:01:16;;;;;;;;;;;;;;;13.95;100.00;100551.94;5014400;28;948;-59
2023/10/07 04:03:46;;;;;;;;;;;;;;;13.87;100.00;100548.44;5014738;28;932;-59
2023/10/07 04:06:16;;;;;;;;;;;;;;;13.79;100.00;100546.88;5014433;28;1890;-59
2023/10/07 04:08:45;;;;;;;;;;;;;;;13.74;100.00;100555.63;5014710;28;892;-59
2023/10/07 04:11:16;;;;;;;;;;;;;;;13.76;100.00;100547.69;5014402;28;1035;-59
2023/10/07 04:13:44;;;;;;;;;;;;;;;13.78;100.00;100551.63;5014841;28;926;-59
2023/10/07 04:16:24;;;;;;;;;;;;;;;13.74;100.00;100550.88;5014346;28;864;-59
2023/10/07 04:18:51;;;;;;;;;;;;;;;13.68;100.00;100546.94;5014311;28;930;-59
2023/10/07 04:21:18;;;;;;;;;;;;;;;13.71;100.00;100560.00;4996583;28;865;-59
2023/10/07 04:23:45;;;;;;;;;;;;;;;13.73;100.00;100556.84;5014003;28;1395;-59
2023/10/07 04:26:19;;;;;;;;;;;;;;;13.68;100.00;100558.84;5014111;28;1971;-59
2023/10/07 04:28:49;;;;;;;;;;;;;;;13.62;100.00;100557.69;5013145;28;950;-59
2023/10/07 04:31:29;;;;;;;;;;;;;;;13.51;100.00;100559.72;5014417;28;849;-59
2023/10/07 04:34:01;;;;;;;;;;;;;;;13.36;100.00;100561.78;5014091;28;1390;-59
2023/10/07 04:36:54;;;;;;;;;;;;;;;13.25;100.00;100561.00;5013972;28;912;-59
2023/10/07 04:39:28;;;;;;;;;;;;;;;13.25;100.00;100559.03;5013763;28;947;-59
2023/10/07 04:41:58;;;;;;;;;;;;;;;13.40;100.00;100562.56;5013901;28;908;-59
2023/10/07 04:47:34;;;;;;;;;;;;;;;13.40;100.00;100578.41;5013989;28;1943;-59
2023/10/07 04:50:08;;;;;;;;;;;;;;;13.33;100.00;100565.34;5013737;28;995;-59
2023/10/07 04:52:42;;;;;;;;;;;;;;;13.28;100.00;100568.53;5013677;28;892;-59
2023/10/07 04:55:19;;;;;;;;;;;;;;;13.22;100.00;100572.91;5013794;28;1256;-59
2023/10/07 05:02:57;;;;;;;;;;;;;;;13.49;100.00;100576.00;5013513;28;818;-59
2023/10/07 05:05:24;;;;;;;;;;;;;;;13.59;100.00;100579.91;5013371;28;1882;-59
2023/10/07 05:07:56;;;;;;;;;;;;;;;13.76;100.00;100572.69;5013449;28;986;-59
2023/10/07 05:10:24;;;;;;;;;;;;;;;13.88;100.00;100581.34;5013257;28;954;-59
2023/10/07 05:12:55;;;;;;;;;;;;;;;14.01;100.00;100580.88;5013379;28;960;-59
2023/10/07 05:15:25;;;;;;;;;;;;;;;14.20;100.00;100579.56;5013459;28;947;-59
2023/10/07 05:17:56;;;;;;;;;;;;;;;14.38;100.00;100574.66;5013136;28;933;-59
2023/10/07 05:20:28;;;;;;;;;;;;;;;14.56;100.00;100579.31;4979774;28;1236;-59
2023/10/07 05:22:55;;;;;;;;;;;;;;;14.74;100.00;100574.34;5013175;28;1295;-59
2023/10/07 05:25:22;;;;;;;;;;;;;;;14.92;100.00;100574.19;5012919;28;1930;-59
2023/10/07 05:27:50;;;;;;;;;;;;;;;15.09;100.00;100575.19;5013029;28;835;-59
2023/10/07 05:30:18;;;;;;;;;;;;;;;15.24;100.00;100582.19;5012845;28;928;-59
2023/10/07 05:32:48;;;;;;;;;;;;;;;15.38;100.00;100580.44;5012921;28;957;-59
2023/10/07 05:35:18;;;;;;;;;;;;;;;15.55;100.00;100582.19;5012853;28;935;-59
2023/10/07 05:37:47;;;;;;;;;;;;;;;15.73;100.00;100592.38;5012894;28;1220;-59
2023/10/07 05:40:16;;;;;;;;;;;;;;;15.93;100.00;100587.69;5012668;28;947;-59
2023/10/07 05:42:43;;;;;;;;;;;;;;;16.15;100.00;100590.94;5012754;28;928;-59
2023/10/07 05:45:10;;;;;;;;;;;;;;;16.34;100.00;100586.66;5012679;28;962;-59
2023/10/07 05:47:36;;;;;;;;;;;;;;;16.57;100.00;100585.88;5012521;28;1939;-59
2023/10/07 05:50:04;;;;;;;;;;;;;;;16.74;100.00;100589.59;5012688;28;862;-59
2023/10/07 05:52:32;;;;;;;;;;;;;;;16.83;100.00;100594.63;5012501;28;971;-59
2023/10/07 05:54:58;;;;;;;;;;;;;;;16.94;100.00;100584.06;5012599;28;959;-59
2023/10/07 05:57:25;;;;;;;;;;;;;;;17.03;100.00;100589.09;5012441;28;927;-59
2023/10/07 05:59:51;;;;;;;;;;;;;;;17.10;100.00;100589.75;5012496;28;887;-59
2023/10/07 06:02:18;;;;;;;;;;;;;;;17.21;100.00;100603.50;5012384;28;971;-59
2023/10/07 06:04:45;;;;;;;;;;;;;;;17.33;100.00;100599.28;5012420;28;860;-59
2023/10/07 06:07:12;;;;;;;;;;;;;;;17.55;100.00;100608.78;5012387;28;1886;-59
2023/10/07 06:09:42;;;;;;;;;;;;;;;17.92;100.00;100600.47;5012367;28;816;-59
2023/10/07 06:12:08;;;;;;;;;;;;;;;18.40;100.00;100607.34;5012251;28;1516;-59
2023/10/07 06:14:35;;;;;;;;;;;;;;;18.87;100.00;100606.97;5012263;28;943;-59
2023/10/07 06:17:01;;;;;;;;;;;;;;;19.33;100.00;100596.53;5012515;28;880;-59
2023/10/07 06:19:28;;;;;;;;;;;;;;;19.88;100.00;100604.16;5012162;28;864;-59
2023/10/07 06:21:56;;;;;;;;;;;;;;;20.47;100.00;100607.53;5012152;28;851;-58
2023/10/07 06:24:23;;;;;;;;;;;;;;;20.73;100.00;100608.28;5011881;28;1421;-58
2023/10/07 06:26:53;;;;;;;;;;;;;;;20.59;100.00;100601.16;5011965;28;1910;-59
2023/10/07 06:29:20;;;;;;;;;;;;;;;20.35;100.00;100600.69;5012345;28;829;-59
2023/10/07 06:32:12;;;;;;;;;;;;;;;20.10;100.00;100596.66;5012215;28;887;-59
2023/10/07 06:34:44;;;;;;;;;;;;;;;20.10;100.00;100596.66;5012150;28;928;-59
2023/10/07 06:37:11;;;;;;;;;;;;;;;20.30;100.00;100590.81;4994416;28;827;-59
2023/10/07 06:39:38;;;;;;;;;;;;;;;20.54;100.00;100585.59;5011999;28;813;-59
2023/10/07 06:42:06;;;;;;;;;;;;;;;20.76;100.00;100577.28;5011905;28;975;-59
2023/10/07 07:13:35;;;;;;;;;;;;;;;24.62;90.02;100569.81;5851404;23;1667;-65
2023/10/07 07:15:57;;;;;;;;;;;;;;;25.09;78.52;100563.78;4975213;28;1511;-65
2023/10/07 07:18:27;;;;;;;;;;;;;;;25.62;75.40;100565.78;4976505;28;883;-65
2023/10/07 07:23:25;;;;;;;;;;;;;;;26.64;70.34;100557.53;4976401;28;686;-66
2023/10/07 07:26:13;;;;;;;;;;;;;;;26.83;69.86;100552.34;4976218;28;1918;-66
2023/10/07 07:28:45;;;;;;;;;;;;;;;26.80;67.92;100558.22;4975494;28;1200;-65
2023/10/07 07:31:18;;;;;;;;;;;;;;;26.44;68.09;100551.84;4976170;28;840;-64
2023/10/07 07:33:50;;;;;;;;;;;;;;;26.43;68.29;100558.78;4974839;28;1344;-64
2023/10/07 07:36:42;;;;;;;;;;;;;;;26.84;67.75;100548.25;4976193;28;828;-66
2023/10/07 07:39:17;;;;;;;;;;;;;;;26.67;68.07;100558.59;4976129;28;845;-67
2023/10/07 07:41:56;;;;;;;;;;;;;;;26.33;68.61;100560.19;4976365;28;841;-67
2023/10/07 07:44:34;;;;;;;;;;;;;;;26.21;68.79;100562.84;4975913;28;837;-68
2023/10/07 07:47:05;;;;;;;;;;;;;;;26.20;67.35;100554.84;4975996;28;1971;-68
2023/10/07 07:49:32;;;;;;;;;;;;;;;25.79;63.01;100557.56;4975825;28;840;-68
2023/10/07 07:51:59;;;;;;;;;;;;;;;24.61;65.20;100561.81;4975838;28;1054;-67
2023/10/07 07:54:26;;;;;;;;;;;;;;;24.16;67.62;100563.63;4976251;28;869;-67
2023/10/07 07:56:54;;;;;;;;;;;;;;;24.54;67.97;100568.63;4975741;28;928;-68
2023/10/07 07:59:21;;;;;;;;;;;;;;;24.90;67.09;100566.78;4975738;28;884;-67
2023/10/07 08:01:53;;;;;;;;;;;;;;;25.51;65.28;100555.06;4975546;28;919;-67
2023/10/07 08:05:07;;;;;;;;;;;;;;;26.17;63.52;100555.84;4958279;28;1420;-68
2023/10/07 08:07:29;;;;;;;;;;;;;;;26.82;58.92;100558.50;4964646;28;1952;-67
2023/10/07 08:09:57;;;;;;;;;;;;;;;27.26;55.30;100558.22;4975073;28;1179;-68
2023/10/07 08:12:33;;;;;;;;;;;;;;;27.09;56.11;100554.41;4975440;28;1023;-67
2023/10/07 08:15:14;;;;;;;;;;;;;;;27.33;55.46;100550.56;4991366;28;1385;-67
2023/10/07 08:17:44;;;;;;;;;;;;;;;27.81;54.96;100553.53;4977418;28;1415;-67
2023/10/07 08:20:12;;;;;;;;;;;;;;;28.17;51.34;100550.47;4993369;28;1292;-67
2023/10/07 08:22:45;;;;;;;;;;;;;;;28.36;50.12;100543.06;4994670;28;863;-67
2023/10/07 08:25:37;;;;;;;;;;;;;;;28.48;47.12;100541.84;4994766;28;862;-66
2023/10/07 08:28:18;;;;;;;;;;;;;;;28.18;44.50;100534.94;4994267;28;1527;-68
2023/10/07 08:30:48;;;;;;;;;;;;;;;27.61;44.28;100530.91;4994739;28;871;-68
2023/10/07 08:33:15;;;;;;;;;;;;;;;27.59;44.42;100539.16;4994562;28;832;-68
2023/10/07 08:35:47;;;;;;;;;;;;;;;27.19;44.44;100544.47;4994572;28;879;-68
2023/10/07 08:38:23;;;;;;;;;;;;;;;25.92;47.02;100543.13;4994337;28;888;-68
2023/10/07 08:40:59;;;;;;;;;;;;;;;25.87;47.58;100533.25;4994340;28;832;-68
2023/10/07 08:43:32;;;;;;;;;;;;;;;26.23;47.83;100531.97;4994514;28;824;-69
2023/10/07 08:46:01;;;;;;;;;;;;;;;25.39;48.62;100542.78;4994264;28;1886;-68
2023/10/07 08:48:29;;;;;;;;;;;;;;;24.04;51.45;100537.94;4976849;28;1233;-68
2023/10/07 08:50:55;;;;;;;;;;;;;;;23.09;53.04;100529.94;4994233;28;892;-69
2023/10/07 08:53:26;;;;;;;;;;;;;;;22.65;54.98;100533.06;4994242;28;855;-68
2023/10/07 08:55:56;;;;;;;;;;;;;;;22.78;54.32;100530.88;4994058;28;884;-68
2023/10/07 08:58:28;;;;;;;;;;;;;;;22.58;54.08;100534.16;4994288;28;820;-66
2023/10/07 09:00:56;;;;;;;;;;;;;;;22.36;54.86;100526.63;4994084;28;888;-67
2023/10/07 09:03:26;;;;;;;;;;;;;;;23.17;53.91;100525.53;4993959;28;817;-68
2023/10/07 09:06:06;;;;;;;;;;;;;;;24.18;52.10;100519.53;4993727;28;1943;-68
2023/10/07 09:08:38;;;;;;;;;;;;;;;24.55;50.43;100518.53;4994096;28;1123;-68
2023/10/07 09:11:10;;;;;;;;;;;;;;;24.42;50.31;100513.09;4993808;28;840;-67
2023/10/07 09:13:38;;;;;;;;;;;;;;;24.93;49.15;100508.47;4993087;28;1423;-67
2023/10/07 09:16:07;;;;;;;;;;;;;;;25.40;48.09;100509.59;4993705;28;863;-68
2023/10/07 09:18:41;;;;;;;;;;;;;;;25.77;47.55;100511.97;4993745;28;916;-67
2023/10/07 09:21:18;;;;;;;;;;;;;;;26.38;46.63;100499.97;4993885;28;1270;-67
2023/10/07 09:23:59;;;;;;;;;;;;;;;26.77;46.66;100491.94;4993507;28;840;-70
2023/10/07 09:26:36;;;;;;;;;;;;;;;26.80;45.83;100495.84;4993528;28;1906;-70
2023/10/07 09:29:15;;;;;;;;;;;;;;;26.57;46.63;100487.09;4993396;28;1076;-70
2023/10/07 09:31:42;;;;;;;;;;;;;;;26.53;46.59;100480.06;4993537;28;939;-70
2023/10/07 09:34:30;;;;;;;;;;;;;;;26.40;46.86;100481.19;4993403;28;869;-70
2023/10/07 09:36:57;;;;;;;;;;;;;;;25.93;47.20;100474.66;4975854;28;1198;-69
2023/10/07 09:39:34;;;;;;;;;;;;;;;25.47;48.03;100487.31;4993388;28;860;-70
2023/10/07 09:42:10;;;;;;;;;;;;;;;24.92;49.33;100484.28;4975713;28;1490;-70
2023/10/07 09:44:38;;;;;;;;;;;;;;;24.31;50.34;100473.31;4993356;28;888;-68
2023/10/07 09:47:12;;;;;;;;;;;;;;;24.13;51.06;100477.84;4993102;28;1886;-69
2023/10/07 09:49:39;;;;;;;;;;;;;;;24.69;49.64;100472.56;4993151;28;880;-69
2023/10/07 09:52:15;;;;;;;;;;;;;;;25.18;49.23;100468.31;4993011;28;832;-71
2023/10/07 09:55:18;;;;;;;;;;;;;;;24.94;48.75;100465.56;4993117;28;904;-71
2023/10/07 09:58:00;;;;;;;;;;;;;;;24.75;49.11;100459.34;4993364;28;844;-69
2023/10/07 10:03:12;;;;;;;;;;;;;;;25.31;48.19;100448.25;4992957;28;826;-70
2023/10/07 10:05:38;;;;;;;;;;;;;;;25.11;48.48;100440.41;4992788;28;1977;-69
2023/10/07 10:08:10;;;;;;;;;;;;;;;25.61;47.63;100429.16;4992904;28;845;-68
2023/10/07 10:10:46;;;;;;;;;;;;;;;25.52;47.89;100423.63;4992940;28;908;-70
2023/10/07 10:13:29;;;;;;;;;;;;;;;26.06;46.40;100420.50;4992753;28;1282;-67
2023/10/07 10:16:00;;;;;;;;;;;;;;;26.68;44.95;100418.41;4992698;28;926;-68
2023/10/07 10:18:38;;;;;;;;;;;;;;;26.76;44.48;100413.06;4992532;28;1095;-66
2023/10/07 10:21:11;;;;;;;;;;;;;;;27.13;43.58;100406.69;4992566;28;899;-67
2023/10/07 10:23:44;;;;;;;;;;;;;;;27.18;42.84;100400.25;4992663;28;899;-67
2023/10/07 10:26:15;;;;;;;;;;;;;;;27.42;41.30;100395.06;4991561;28;1967;-67
2023/10/07 10:28:55;;;;;;;;;;;;;;;27.28;40.73;100388.25;4992658;28;867;-67
2023/10/07 10:31:22;;;;;;;;;;;;;;;27.07;39.98;100392.44;4992440;28;831;-66
2023/10/07 10:33:49;;;;;;;;;;;;;;;26.98;40.34;100389.81;4992519;28;817;-66
2023/10/07 10:36:21;;;;;;;;;;;;;;;27.04;40.90;100382.13;4992395;28;817;-66
2023/10/07 10:38:48;;;;;;;;;;;;;;;27.00;40.69;100368.16;4992447;28;844;-67
2023/10/07 10:41:25;;;;;;;;;;;;;;;26.89;41.05;100368.06;4992303;28;840;-66
2023/10/07 10:44:02;;;;;;;;;;;;;;;27.20;40.79;100361.59;4992336;28;793;-67
2023/10/07 10:46:28;;;;;;;;;;;;;;;27.42;39.31;100352.50;4992318;28;1989;-66
2023/10/07 10:48:55;;;;;;;;;;;;;;;27.49;39.13;100354.84;4992365;28;887;-66
2023/10/07 10:51:21;;;;;;;;;;;;;;;27.54;38.76;100346.88;4992299;28;1040;-68
2023/10/07 10:53:47;;;;;;;;;;;;;;;27.23;38.52;100337.16;4992419;28;813;-69
2023/10/07 10:56:14;;;;;;;;;;;;;;;27.20;39.11;100338.13;4992224;28;836;-68
2023/10/07 10:58:41;;;;;;;;;;;;;;;27.19;38.45;100331.69;4992319;28;824;-68
2023/10/07 11:01:08;;;;;;;;;;;;;;;27.21;38.10;100336.84;4992211;28;895;-68
2023/10/07 11:03:36;;;;;;;;;;;;;;;27.57;37.39;100334.47;4992274;28;816;-70
2023/10/07 11:06:06;;;;;;;;;;;;;;;27.50;37.72;100324.38;4990955;28;1882;-68
2023/10/07 11:08:33;;;;;;;;;;;;;;;27.48;37.44;100329.78;4992144;28;892;-69
2023/10/07 11:11:00;;;;;;;;;;;;;;;27.67;37.67;100324.47;4992056;28;911;-69
2023/10/07 11:13:29;;;;;;;;;;;;;;;28.22;37.16;100317.44;4992126;28;1263;-69
2023/10/07 11:16:09;;;;;;;;;;;;;;;28.57;36.43;100316.25;4992327;28;844;-69
2023/10/07 11:18:37;;;;;;;;;;;;;;;28.59;35.55;100305.13;4974656;28;1292;-69
2023/10/07 11:21:15;;;;;;;;;;;;;;;28.59;35.42;100305.13;4992099;28;913;-67
2023/10/07 11:23:49;;;;;;;;;;;;;;;28.32;35.29;100298.09;4992057;28;959;-69
2023/10/07 11:26:17;;;;;;;;;;;;;;;28.30;35.47;100298.59;4991956;28;1987;-68
2023/10/07 11:28:44;;;;;;;;;;;;;;;28.46;35.11;100297.09;4991915;28;853;-66
2023/10/07 11:31:11;;;;;;;;;;;;;;;28.69;34.22;100295.03;4992036;28;868;-67
2023/10/07 11:33:37;;;;;;;;;;;;;;;28.87;33.66;100293.72;4991903;28;871;-68
2023/10/07 11:36:04;;;;;;;;;;;;;;;29.09;32.83;100275.88;4991999;28;897;-67
2023/10/07 11:38:30;;;;;;;;;;;;;;;29.30;32.68;100270.63;4995438;28;888;-66
2023/10/07 11:40:57;;;;;;;;;;;;;;;29.10;32.81;100256.72;4995772;28;813;-68
2023/10/07 11:43:23;;;;;;;;;;;;;;;29.10;33.06;100265.25;4995462;28;907;-70
2023/10/07 11:45:51;;;;;;;;;;;;;;;28.91;32.84;100270.69;4995363;28;1894;-66
2023/10/07 11:48:21;;;;;;;;;;;;;;;28.96;33.20;100274.84;4995385;28;946;-69
2023/10/07 11:50:48;;;;;;;;;;;;;;;29.01;32.73;100265.50;4995359;28;871;-69
2023/10/07 11:53:15;;;;;;;;;;;;;;;29.06;32.36;100262.66;4995330;28;852;-68
2023/10/07 11:55:42;;;;;;;;;;;;;;;29.11;32.84;100255.44;4995145;28;828;-69
2023/10/07 11:58:09;;;;;;;;;;;;;;;29.34;32.55;100249.66;4995311;28;853;-68
2023/10/07 12:00:36;;;;;;;;;;;;;;;29.82;31.96;100240.66;4995086;28;886;-68
2023/10/07 12:03:07;;;;;;;;;;;;;;;30.16;31.53;100246.13;4995199;28;813;-70
2023/10/07 12:05:38;;;;;;;;;;;;;;;29.92;31.30;100241.88;4994881;28;1894;-67
2023/10/07 12:08:05;;;;;;;;;;;;;;;29.88;31.68;100247.09;4995115;28;871;-68
2023/10/07 12:10:38;;;;;;;;;;;;;;;29.76;31.35;100237.06;4995478;28;801;-69
2023/10/07 12:13:07;;;;;;;;;;;;;;;29.61;31.44;100230.91;4994781;28;1207;-68
2023/10/07 12:15:39;;;;;;;;;;;;;;;29.77;31.31;100230.06;4994896;28;894;-67
2023/10/07 12:18:06;;;;;;;;;;;;;;;30.13;30.81;100219.47;4977340;28;1333;-67
2023/10/07 12:20:33;;;;;;;;;;;;;;;30.38;30.42;100225.25;4994813;28;904;-67
2023/10/07 12:23:00;;;;;;;;;;;;;;;30.54;30.30;100217.88;4977224;28;1277;-66
2023/10/07 12:25:26;;;;;;;;;;;;;;;30.98;30.08;100217.97;4994703;28;966;-67
2023/10/07 12:27:53;;;;;;;;;;;;;;;30.95;30.35;100202.69;4994544;28;1910;-69
2023/10/07 12:30:22;;;;;;;;;;;;;;;30.64;30.31;100207.66;4994670;28;876;-67
2023/10/07 12:32:50;;;;;;;;;;;;;;;30.27;30.60;100208.97;4994430;28;963;-70
2023/10/07 12:35:17;;;;;;;;;;;;;;;29.98;31.30;100201.19;4994572;28;832;-68
2023/10/07 12:37:46;;;;;;;;;;;;;;;29.87;31.50;100199.97;4994282;28;832;-69
2023/10/07 12:40:19;;;;;;;;;;;;;;;30.07;31.13;100193.09;4994445;28;856;-69
2023/10/07 12:42:46;;;;;;;;;;;;;;;30.45;31.00;100189.66;4994404;28;908;-69
2023/10/07 12:45:13;;;;;;;;;;;;;;;30.80;30.45;100188.03;4994473;28;821;-68
2023/10/07 12:47:42;;;;;;;;;;;;;;;30.95;30.14;100179.09;4993720;28;1890;-70
2023/10/07 12:50:29;;;;;;;;;;;;;;;30.74;30.22;100173.84;4976363;28;1233;-69
2023/10/07 12:52:59;;;;;;;;;;;;;;;30.55;30.33;100165.22;4994275;28;996;-69
2023/10/07 12:55:32;;;;;;;;;;;;;;;30.19;30.76;100173.81;4994121;28;895;-67
2023/10/07 12:58:18;;;;;;;;;;;;;;;29.61;31.28;100168.25;4994285;28;946;-68
2023/10/07 13:00:45;;;;;;;;;;;;;;;29.93;31.41;100160.78;4994117;28;884;-70
2023/10/07 13:03:12;;;;;;;;;;;;;;;30.18;31.21;100162.94;4994120;28;820;-68
2023/10/07 13:05:39;;;;;;;;;;;;;;;30.31;30.65;100155.34;4994019;28;1943;-68
2023/10/07 13:08:15;;;;;;;;;;;;;;;30.19;30.46;100158.78;4993770;28;805;-68
2023/10/07 13:10:41;;;;;;;;;;;;;;;30.29;30.57;100155.09;4993889;28;842;-68
2023/10/07 13:13:08;;;;;;;;;;;;;;;30.58;30.53;100147.03;4993697;28;1120;-69
2023/10/07 13:15:35;;;;;;;;;;;;;;;30.42;30.41;100148.75;4993864;28;816;-69
2023/10/07 13:18:02;;;;;;;;;;;;;;;30.05;31.19;100152.94;4993671;28;888;-69
2023/10/07 13:20:30;;;;;;;;;;;;;;;30.06;31.35;100148.00;4993706;28;962;-68
2023/10/07 13:23:06;;;;;;;;;;;;;;;30.47;31.03;100139.38;4993578;28;880;-68
2023/10/07 13:25:34;;;;;;;;;;;;;;;30.69;30.75;100144.06;4993677;28;852;-68
2023/10/07 13:28:00;;;;;;;;;;;;;;;30.73;30.84;100146.63;4993478;28;1966;-69
2023/10/07 13:30:29;;;;;;;;;;;;;;;30.80;30.53;100137.47;4993529;28;812;-68
2023/10/07 13:32:56;;;;;;;;;;;;;;;30.73;30.28;100133.13;4993336;28;821;-68
2023/10/07 13:35:24;;;;;;;;;;;;;;;30.89;29.86;100137.09;4992170;28;1398;-69
2023/10/07 13:37:52;;;;;;;;;;;;;;;30.76;30.46;100130.50;4993267;28;825;-70
2023/10/07 13:40:19;;;;;;;;;;;;;;;30.09;31.10;100130.63;4993282;28;836;-69
2023/10/07 13:42:47;;;;;;;;;;;;;;;29.82;31.46;100125.94;4993269;28;836;-70
2023/10/07 13:45:24;;;;;;;;;;;;;;;29.65;31.85;100121.09;4993122;28;903;-70
2023/10/07 13:47:51;;;;;;;;;;;;;;;29.71;31.75;100116.16;4993299;28;1886;-71
2023/10/07 13:50:24;;;;;;;;;;;;;;;29.48;31.75;100121.22;4993111;28;856;-71
2023/10/07 13:57:59;;;;;;;;;;;;;;;29.28;32.03;100113.84;4993196;28;845;-69
2023/10/07 14:00:45;;;;;;;;;;;;;;;29.48;31.81;100109.06;4993041;28;856;-67
2023/10/07 14:03:19;;;;;;;;;;;;;;;29.20;32.26;100115.69;4992704;28;1041;-69
2023/10/07 14:05:51;;;;;;;;;;;;;;;29.00;32.43;100105.41;4992756;28;1893;-66
2023/10/07 14:08:19;;;;;;;;;;;;;;;28.84;32.75;100100.56;4992825;28;868;-65
2023/10/07 14:10:55;;;;;;;;;;;;;;;28.51;33.06;100107.94;4992907;28;872;-67
2023/10/07 14:13:26;;;;;;;;;;;;;;;27.67;34.08;100108.69;4992845;28;1453;-66
2023/10/07 14:15:53;;;;;;;;;;;;;;;27.24;35.08;100103.19;4992993;28;825;-68
2023/10/07 14:18:21;;;;;;;;;;;;;;;26.71;35.65;100104.75;4992684;28;883;-68